createdAt,value
2018-04-10T00:00:47.306Z,21.97
2018-04-10T00:03:14.690Z,21.13
2018-04-10T00:05:42.086Z,19.60
2018-04-10T00:08:09.494Z,22.50
2018-04-10T00:10:36.981Z,23.20
2018-04-10T00:13:04.377Z,23.30
2018-04-10T00:15:31.785Z,19.80
2018-04-10T00:17:59.168Z,21.93
2018-04-10T00:20:26.576Z,21.00
2018-04-10T00:22:53.959Z,22.17
2018-04-10T00:25:21.376Z,23.83
2018-04-10T00:27:48.839Z,23.10
2018-04-10T00:30:16.245Z,19.73
2018-04-10T00:32:43.628Z,25.70
2018-04-10T00:35:11.037Z,21.83
2018-04-10T00:37:38.432Z,21.43
2018-04-10T00:40:05.908Z,20.47
2018-04-10T00:42:33.329Z,27.87
2018-04-10T00:45:00.721Z,21.67
2018-04-10T00:47:28.112Z,31.53
2018-04-10T00:49:55.552Z,24.00
2018-04-10T00:52:22.940Z,24.83
2018-04-10T00:54:50.344Z,25.37
2018-04-10T00:57:17.735Z,28.33
2018-04-10T00:59:45.140Z,24.57
2018-04-10T01:02:12.533Z,23.50
2018-04-10T01:04:39.932Z,21.10
2018-04-10T01:07:07.404Z,23.40
2018-04-10T01:09:34.861Z,25.97
2018-04-10T01:12:02.249Z,24.43
2018-04-10T01:14:29.648Z,24.93
2018-04-10T01:16:57.053Z,25.43
2018-04-10T01:19:24.469Z,26.67
2018-04-10T01:21:51.875Z,24.57
2018-04-10T01:24:19.328Z,22.67
2018-04-10T01:26:46.776Z,26.13
2018-04-10T01:29:14.216Z,28.93
2018-04-10T01:31:41.610Z,23.57
2018-04-10T01:34:09.013Z,24.10
2018-04-10T01:36:36.408Z,22.27
2018-04-10T01:39:03.800Z,24.10
2018-04-10T01:41:31.212Z,27.77
2018-04-10T01:43:58.705Z,24.40
2018-04-10T01:46:26.109Z,27.67
2018-04-10T01:48:53.516Z,24.77
2018-04-10T01:51:20.972Z,22.73
2018-04-10T01:53:48.364Z,29.60
2018-04-10T01:56:15.785Z,29.73
2018-04-10T01:58:43.197Z,26.93
2018-04-10T02:01:10.722Z,24.83
2018-04-10T02:03:38.121Z,29.20
2018-04-10T02:06:05.531Z,30.00
2018-04-10T02:08:32.970Z,36.77
2018-04-10T02:11:00.426Z,31.20
2018-04-10T02:13:27.882Z,26.33
2018-04-10T02:15:55.285Z,26.70
2018-04-10T02:18:23.470Z,27.03
2018-04-10T02:20:50.923Z,24.40
2018-04-10T02:23:18.288Z,24.60
2018-04-10T02:25:46.015Z,23.60
2018-04-10T02:28:13.484Z,21.60
2018-04-10T02:30:40.891Z,24.80
2018-04-10T02:33:08.281Z,25.20
2018-04-10T02:35:35.773Z,29.97
2018-04-10T02:38:03.160Z,27.03
2018-04-10T02:40:30.562Z,27.83
2018-04-10T02:42:57.952Z,29.30
2018-04-10T02:45:25.352Z,23.57
2018-04-10T02:47:52.748Z,23.80
2018-04-10T02:50:20.144Z,28.90
2018-04-10T02:52:47.531Z,27.43
2018-04-10T02:55:14.929Z,24.73
2018-04-10T02:57:42.336Z,25.30
2018-04-10T03:00:09.827Z,25.12
2018-04-10T03:02:37.241Z,23.70
2018-04-10T03:05:04.637Z,28.53
2018-04-10T03:07:32.029Z,21.53
2018-04-10T03:09:59.497Z,23.80
2018-04-10T03:12:26.892Z,31.97
2018-04-10T03:14:54.285Z,22.17
2018-04-10T03:17:21.689Z,29.87
2018-04-10T03:19:49.134Z,25.03
2018-04-10T03:22:16.527Z,23.83
2018-04-10T03:24:43.929Z,22.27
2018-04-10T03:27:11.328Z,24.90
2018-04-10T03:29:38.723Z,23.87
2018-04-10T03:32:06.205Z,24.97
2018-04-10T03:34:33.599Z,23.87
2018-04-10T03:37:01.019Z,23.53
2018-04-10T03:39:28.408Z,22.33
2018-04-10T03:41:55.828Z,22.77
2018-04-10T03:44:23.221Z,22.10
2018-04-10T03:46:50.645Z,22.43
2018-04-10T03:49:18.036Z,23.20
2018-04-10T03:51:45.548Z,22.07
2018-04-10T03:54:13.001Z,22.40
2018-04-10T03:56:40.400Z,21.27
2018-04-10T03:59:07.800Z,24.77
2018-04-10T04:01:35.216Z,25.70
2018-04-10T04:04:02.614Z,26.20
2018-04-10T04:06:30.016Z,24.70
2018-04-10T04:08:57.428Z,27.33
2018-04-10T04:11:24.822Z,21.67
2018-04-10T04:13:52.261Z,28.93
2018-04-10T04:19:32.296Z,30.73
2018-04-10T04:22:13.323Z,21.97
2018-04-10T04:24:40.716Z,31.17
2018-04-10T04:27:08.133Z,29.83
2018-04-10T04:29:35.524Z,25.30
2018-04-10T04:32:02.933Z,30.07
2018-04-10T04:34:30.324Z,24.80
2018-04-10T04:36:57.761Z,27.80
2018-04-10T04:39:25.156Z,25.70
2018-04-10T04:41:52.564Z,29.37
2018-04-10T04:44:20.023Z,26.00
2018-04-10T04:46:47.472Z,24.67
2018-04-10T04:49:14.860Z,28.20
2018-04-10T04:51:42.310Z,25.27
2018-04-10T04:54:09.696Z,27.20
2018-04-10T04:56:37.101Z,29.33
2018-04-10T04:59:04.484Z,25.03
2018-04-10T05:01:31.886Z,25.67
2018-04-10T05:03:59.280Z,23.13
2018-04-10T05:06:26.681Z,25.50
2018-04-10T05:08:54.076Z,23.57
2018-04-10T05:11:21.549Z,25.00
2018-04-10T05:13:48.937Z,31.07
2018-04-10T05:16:16.328Z,33.80
2018-04-10T05:18:43.724Z,26.47
2018-04-10T05:21:11.116Z,24.90
2018-04-10T05:23:38.516Z,36.57
2018-04-10T05:26:05.909Z,24.70
2018-04-10T05:28:33.365Z,26.13
2018-04-10T05:31:00.776Z,24.93
2018-04-10T05:33:28.164Z,29.10
2018-04-10T05:35:55.561Z,25.27
2018-04-10T05:38:22.961Z,28.90
2018-04-10T05:40:50.346Z,27.17
2018-04-10T05:43:17.757Z,26.40
2018-04-10T05:45:45.160Z,23.27
2018-04-10T05:48:12.574Z,31.47
2018-04-10T05:50:40.025Z,30.60
2018-04-10T05:53:07.567Z,24.90
2018-04-10T05:55:34.924Z,28.27
2018-04-10T05:58:02.440Z,26.30
2018-04-10T06:00:29.832Z,26.92
2018-04-10T06:02:57.255Z,28.10
2018-04-10T06:05:24.712Z,27.77
2018-04-10T06:07:52.133Z,27.00
2018-04-10T06:10:19.621Z,29.00
2018-04-10T06:12:47.077Z,32.63
2018-04-10T06:15:14.533Z,32.37
2018-04-10T06:17:41.941Z,30.80
2018-04-10T06:20:09.327Z,30.87
2018-04-10T06:22:36.749Z,30.33
2018-04-10T06:25:04.141Z,32.47
2018-04-10T06:27:31.647Z,27.80
2018-04-10T06:29:59.107Z,27.83
2018-04-10T06:32:26.508Z,28.60
2018-04-10T06:34:53.900Z,38.77
2018-04-10T06:37:21.292Z,30.13
2018-04-10T06:39:48.689Z,35.00
2018-04-10T06:42:16.152Z,29.00
2018-04-10T06:44:43.617Z,42.30
2018-04-10T06:47:11.009Z,42.30
2018-04-10T06:49:38.476Z,33.90
2018-04-10T06:52:05.928Z,29.37
2018-04-10T06:54:33.385Z,32.73
2018-04-10T06:57:00.772Z,32.23
2018-04-10T06:59:28.164Z,33.93
2018-04-10T07:01:55.640Z,26.83
2018-04-10T07:04:23.109Z,26.90
2018-04-10T07:06:50.560Z,27.27
2018-04-10T07:09:17.960Z,27.50
2018-04-10T07:11:45.356Z,27.93
2018-04-10T07:14:12.753Z,25.67
2018-04-10T07:16:40.141Z,26.90
2018-04-10T07:19:07.548Z,39.33
2018-04-10T07:21:34.932Z,29.33
2018-04-10T07:24:02.348Z,29.80
2018-04-10T07:26:29.741Z,29.27
2018-04-10T07:28:57.140Z,28.40
2018-04-10T07:31:24.533Z,31.17
2018-04-10T07:33:51.942Z,27.23
2018-04-10T07:36:19.334Z,28.10
2018-04-10T07:38:46.793Z,28.10
2018-04-10T07:41:14.181Z,31.47
2018-04-10T07:43:41.593Z,37.20
2018-04-10T07:46:09.103Z,31.20
2018-04-10T07:48:36.521Z,29.07
2018-04-10T07:51:03.933Z,29.23
2018-04-10T07:53:31.390Z,42.10
2018-04-10T07:55:58.781Z,26.40
2018-04-10T07:58:26.237Z,26.83
2018-04-10T08:00:53.662Z,28.57
2018-04-10T08:03:21.050Z,27.07
2018-04-10T08:05:48.449Z,25.63
2018-04-10T08:08:15.860Z,27.50
2018-04-10T08:10:43.248Z,30.10
2018-04-10T08:13:10.645Z,26.03
2018-04-10T08:15:38.046Z,32.33
2018-04-10T08:18:05.437Z,28.93
2018-04-10T08:20:32.845Z,35.50
2018-04-10T08:23:00.232Z,34.57
2018-04-10T08:25:27.634Z,31.33
2018-04-10T08:27:55.029Z,25.47
2018-04-10T08:30:22.459Z,26.90
2018-04-10T08:32:49.925Z,26.40
2018-04-10T08:35:17.325Z,26.03
2018-04-10T08:37:44.724Z,26.33
2018-04-10T08:40:12.120Z,27.70
2018-04-10T08:42:39.501Z,28.30
2018-04-10T08:45:07.061Z,31.27
2018-04-10T08:47:34.463Z,31.17
2018-04-10T08:50:01.861Z,26.93
2018-04-10T08:52:29.273Z,27.07
2018-04-10T08:54:56.676Z,26.07
2018-04-10T08:57:24.068Z,27.70
2018-04-10T08:59:51.762Z,29.03
2018-04-10T09:02:19.153Z,27.20
2018-04-10T09:04:46.661Z,24.93
2018-04-10T09:07:14.121Z,28.23
2018-04-10T09:09:41.520Z,27.93
2018-04-10T09:12:08.937Z,30.33
2018-04-10T09:14:36.341Z,32.03
2018-04-10T09:17:03.749Z,28.70
2018-04-10T09:19:31.148Z,32.23
2018-04-10T09:21:58.537Z,25.90
2018-04-10T09:24:25.937Z,32.73
2018-04-10T09:26:53.325Z,27.03
2018-04-10T09:29:21.152Z,27.93
2018-04-10T09:31:48.545Z,43.37
2018-04-10T09:34:15.949Z,33.10
2018-04-10T09:36:43.405Z,24.40
2018-04-10T09:39:10.813Z,25.40
2018-04-10T09:41:38.200Z,26.77
2018-04-10T09:44:05.600Z,29.30
2018-04-10T09:46:32.989Z,32.70
2018-04-10T09:49:00.377Z,26.20
2018-04-10T09:51:27.845Z,26.83
2018-04-10T09:53:55.233Z,23.20
2018-04-10T09:56:22.661Z,32.50
2018-04-10T09:58:50.128Z,32.90
2018-04-10T10:01:17.520Z,29.93
2018-04-10T10:03:44.916Z,24.60
2018-04-10T10:06:12.312Z,27.20
2018-04-10T10:08:39.737Z,30.37
2018-04-10T10:11:07.196Z,27.33
2018-04-10T10:13:34.652Z,29.63
2018-04-10T10:16:02.044Z,26.33
2018-04-10T10:18:29.476Z,28.03
2018-04-10T10:20:56.924Z,28.97
2018-04-10T10:23:24.318Z,23.00
2018-04-10T10:25:51.712Z,24.00
2018-04-10T10:28:19.197Z,23.27
2018-04-10T10:30:46.601Z,26.33
2018-04-10T10:33:14.004Z,24.23
2018-04-10T10:35:41.460Z,32.73
2018-04-10T10:38:08.849Z,30.87
2018-04-10T10:40:36.274Z,23.83
2018-04-10T10:43:03.729Z,24.40
2018-04-10T10:45:31.186Z,26.50
2018-04-10T10:47:58.573Z,23.27
2018-04-10T10:50:25.976Z,30.07
2018-04-10T10:52:53.376Z,24.40
2018-04-10T10:55:20.774Z,22.50
2018-04-10T10:57:48.172Z,23.43
2018-04-10T11:00:15.573Z,22.73
2018-04-10T11:02:42.992Z,21.73
2018-04-10T11:05:10.388Z,22.63
2018-04-10T11:07:37.793Z,24.63
2018-04-10T11:10:05.191Z,30.33
2018-04-10T11:12:32.585Z,20.57
2018-04-10T11:14:59.985Z,26.03
2018-04-10T11:17:27.369Z,21.53
2018-04-10T11:19:54.769Z,25.37
2018-04-10T11:22:22.167Z,26.87
2018-04-10T11:24:49.565Z,25.80
2018-04-10T11:27:16.960Z,27.13
2018-04-10T11:29:44.357Z,24.87
2018-04-10T11:32:11.768Z,19.73
2018-04-10T11:34:39.148Z,22.17
2018-04-10T11:37:06.651Z,20.87
2018-04-10T11:39:34.079Z,22.20
2018-04-10T11:42:01.473Z,21.60
2018-04-10T11:44:28.877Z,18.37
2018-04-10T11:46:56.273Z,19.53
2018-04-10T11:49:23.664Z,21.53
2018-04-10T11:51:51.068Z,26.33
2018-04-10T11:54:18.461Z,19.20
2018-04-10T11:56:45.884Z,20.73
2018-04-10T11:59:13.269Z,29.30
2018-04-10T12:01:40.668Z,17.33
2018-04-10T12:04:08.060Z,17.77
2018-04-10T12:06:35.505Z,18.43
2018-04-10T12:09:02.852Z,21.27
2018-04-10T12:11:30.269Z,20.80
2018-04-10T12:13:57.662Z,17.77
2018-04-10T12:16:25.060Z,24.30
2018-04-10T12:18:52.505Z,24.47
2018-04-10T12:21:19.910Z,18.10
2018-04-10T12:23:47.288Z,17.87
2018-04-10T12:26:14.757Z,17.00
2018-04-10T12:28:42.157Z,15.63
2018-04-10T12:31:09.579Z,24.37
2018-04-10T12:33:36.980Z,20.70
2018-04-10T12:36:04.380Z,17.97
2018-04-10T12:38:31.787Z,18.53
2018-04-10T12:40:59.176Z,16.40
2018-04-10T12:43:26.564Z,14.97
2018-04-10T12:45:54.090Z,21.60
2018-04-10T12:48:21.483Z,16.37
2018-04-10T12:50:48.988Z,22.47
2018-04-10T12:53:16.386Z,18.20
2018-04-10T12:55:43.785Z,20.07
2018-04-10T12:58:11.181Z,23.60
2018-04-10T13:00:38.613Z,24.17
2018-04-10T13:03:06.080Z,12.67
2018-04-10T13:05:33.501Z,26.43
2018-04-10T13:08:00.900Z,15.73
2018-04-10T13:10:28.333Z,19.53
2018-04-10T13:12:55.741Z,21.77
2018-04-10T13:15:23.130Z,20.60
2018-04-10T13:17:50.533Z,15.07
2018-04-10T13:20:18.008Z,18.00
2018-04-10T13:22:45.519Z,15.10
2018-04-10T13:25:13.010Z,19.20
2018-04-10T13:27:40.414Z,25.43
2018-04-10T13:30:07.808Z,18.30
2018-04-10T13:32:35.228Z,19.77
2018-04-10T13:35:02.608Z,27.10
2018-04-10T13:37:30.056Z,17.70
2018-04-10T13:39:57.445Z,22.00
2018-04-10T13:42:24.877Z,15.83
2018-04-10T13:44:52.260Z,17.60
2018-04-10T13:47:19.695Z,20.90
2018-04-10T13:49:47.093Z,17.83
2018-04-10T13:52:14.496Z,16.43
2018-04-10T13:54:41.960Z,16.90
2018-04-10T13:57:09.361Z,19.40
2018-04-10T13:59:36.756Z,21.77
2018-04-10T14:02:04.149Z,15.07
2018-04-10T14:04:31.544Z,20.30
2018-04-10T14:06:59.918Z,28.73
2018-04-10T14:09:27.316Z,24.93
2018-04-10T14:11:54.712Z,16.97
2018-04-10T14:14:22.125Z,21.60
2018-04-10T14:16:49.535Z,16.40
2018-04-10T14:19:16.940Z,17.27
2018-04-10T14:21:44.335Z,19.20
2018-04-10T14:24:11.729Z,16.33
2018-04-10T14:26:39.212Z,16.20
2018-04-10T14:29:06.604Z,18.23
2018-04-10T14:31:34.028Z,26.37
2018-04-10T14:34:01.418Z,18.10
2018-04-10T14:36:28.809Z,27.33
2018-04-10T14:38:56.293Z,19.83
2018-04-10T14:41:23.694Z,22.73
2018-04-10T14:43:51.091Z,24.13
2018-04-10T14:46:18.481Z,19.60
2018-04-10T14:48:45.881Z,20.00
2018-04-10T14:51:13.267Z,24.23
2018-04-10T14:53:40.664Z,23.20
2018-04-10T14:56:08.060Z,24.53
2018-04-10T14:58:35.490Z,27.63
2018-04-10T15:01:02.948Z,26.98
2018-04-10T15:03:30.345Z,39.37
2018-04-10T15:05:57.740Z,24.20
2018-04-10T15:08:25.139Z,21.70
2018-04-10T15:10:52.528Z,20.07
2018-04-10T15:13:20.029Z,17.63
2018-04-10T15:15:47.492Z,19.00
2018-04-10T15:18:14.893Z,25.10
2018-04-10T15:20:42.284Z,20.90
2018-04-10T15:23:09.681Z,26.20
2018-04-10T15:25:37.069Z,26.20
2018-04-10T15:28:04.464Z,24.60
2018-04-10T15:30:31.877Z,20.83
2018-04-10T15:32:59.283Z,22.77
2018-04-10T15:35:26.668Z,25.13
2018-04-10T15:37:54.148Z,23.63
2018-04-10T15:40:21.536Z,25.40
2018-04-10T15:42:48.932Z,19.60
2018-04-10T15:45:16.420Z,19.33
2018-04-10T15:47:43.821Z,19.60
2018-04-10T15:50:11.213Z,25.73
2018-04-10T15:52:38.688Z,21.90
2018-04-10T15:55:06.081Z,21.23
2018-04-10T15:57:33.480Z,19.20
2018-04-10T16:00:00.872Z,26.70
2018-04-10T16:02:28.271Z,26.17
2018-04-10T16:04:55.768Z,29.93
2018-04-10T16:07:23.178Z,26.17
2018-04-10T16:09:50.572Z,29.63
2018-04-10T16:12:18.048Z,26.97
2018-04-10T16:14:45.500Z,25.17
2018-04-10T16:17:12.892Z,26.70
2018-04-10T16:19:40.295Z,29.13
2018-04-10T16:22:07.683Z,28.03
2018-04-10T16:24:35.124Z,24.57
2018-04-10T16:27:02.525Z,31.33
2018-04-10T16:29:30.059Z,31.50
2018-04-10T16:31:57.445Z,35.77
2018-04-10T16:34:24.953Z,28.67
2018-04-10T16:36:52.361Z,40.03
2018-04-10T16:39:19.768Z,28.07
2018-04-10T16:41:47.430Z,38.73
2018-04-10T16:44:14.825Z,30.83
2018-04-10T16:46:42.244Z,22.20
2018-04-10T16:49:09.651Z,35.30
2018-04-10T16:51:37.044Z,27.47
2018-04-10T16:54:04.454Z,29.27
2018-04-10T16:56:31.868Z,41.90
2018-04-10T16:58:59.256Z,28.97
2018-04-10T17:01:26.644Z,31.67
2018-04-10T17:03:54.046Z,32.90
2018-04-10T17:06:21.476Z,37.23
2018-04-10T17:08:48.834Z,26.37
2018-04-10T17:11:16.228Z,27.30
2018-04-10T17:13:43.629Z,34.90
2018-04-10T17:16:11.025Z,32.23
2018-04-10T17:18:38.424Z,32.70
2018-04-10T17:21:05.832Z,36.03
2018-04-10T17:23:33.228Z,31.07
2018-04-10T17:26:00.608Z,30.13
2018-04-10T17:28:28.020Z,27.90
2018-04-10T17:30:55.417Z,26.03
2018-04-10T17:33:22.822Z,26.03
2018-04-10T17:35:50.240Z,27.10
2018-04-10T17:38:17.704Z,32.33
2018-04-10T17:40:45.101Z,30.57
2018-04-10T17:43:12.495Z,25.33
2018-04-10T17:45:39.896Z,31.20
2018-04-10T17:48:07.324Z,39.67
2018-04-10T17:50:34.721Z,29.03
2018-04-10T17:53:02.114Z,30.63
2018-04-10T17:55:29.602Z,28.00
2018-04-10T17:57:57.003Z,35.00
2018-04-10T18:00:24.523Z,29.10
2018-04-10T18:02:51.916Z,27.97
2018-04-10T18:05:19.419Z,26.70
2018-04-10T18:07:46.813Z,30.57
2018-04-10T18:10:14.213Z,31.73
2018-04-10T18:12:41.693Z,28.30
2018-04-10T18:15:09.092Z,32.10
2018-04-10T18:17:36.497Z,31.93
2018-04-10T18:20:03.884Z,35.63
2018-04-10T18:22:31.320Z,30.13
2018-04-10T18:24:59.020Z,32.50
2018-04-10T18:27:26.540Z,37.03
2018-04-10T18:29:53.961Z,36.13
2018-04-10T18:32:21.353Z,51.23
2018-04-10T18:34:48.861Z,37.33
2018-04-10T18:37:16.249Z,31.17
2018-04-10T18:39:43.649Z,29.07
2018-04-10T18:42:11.040Z,43.23
2018-04-10T18:44:38.435Z,32.93
2018-04-10T18:47:05.850Z,29.37
2018-04-10T18:49:33.296Z,33.23
2018-04-10T18:52:00.709Z,31.53
2018-04-10T18:54:28.106Z,41.37
2018-04-10T18:56:55.563Z,37.07
2018-04-10T18:59:23.013Z,27.90
2018-04-10T19:01:50.483Z,26.83
2018-04-10T19:04:17.889Z,28.53
2018-04-10T19:06:45.285Z,37.33
2018-04-10T19:09:12.680Z,40.60
2018-04-10T19:11:40.075Z,29.40
2018-04-10T19:14:07.534Z,32.23
2018-04-10T19:16:34.973Z,34.10
2018-04-10T19:19:02.360Z,29.97
2018-04-10T19:21:29.784Z,31.77
2018-04-10T19:23:57.200Z,30.03
2018-04-10T19:26:24.588Z,27.63
2018-04-10T19:28:51.980Z,29.23
2018-04-10T19:31:19.380Z,29.73
2018-04-10T19:33:46.777Z,34.80
2018-04-10T19:36:14.177Z,30.53
2018-04-10T19:38:41.568Z,28.03
2018-04-10T19:41:08.956Z,40.70
2018-04-10T19:43:36.371Z,27.83
2018-04-10T19:46:03.765Z,30.87
2018-04-10T19:48:31.169Z,34.90
2018-04-10T19:50:58.657Z,31.67
2018-04-10T19:53:26.054Z,34.20
2018-04-10T19:55:53.443Z,41.33
2018-04-10T19:58:20.868Z,31.93
2018-04-10T20:00:48.260Z,32.57
2018-04-10T20:03:15.664Z,26.90
2018-04-10T20:05:43.053Z,30.03
2018-04-10T20:08:10.452Z,24.70
2018-04-10T20:10:37.841Z,30.87
2018-04-10T20:13:05.237Z,30.27
2018-04-10T20:15:32.637Z,26.43
2018-04-10T20:18:00.037Z,32.07
2018-04-10T20:20:27.451Z,29.47
2018-04-10T20:22:54.852Z,28.10
2018-04-10T20:25:22.250Z,28.63
2018-04-10T20:27:49.645Z,38.73
2018-04-10T20:30:17.056Z,33.57
2018-04-10T20:32:44.503Z,34.57
2018-04-10T20:35:11.856Z,29.83
2018-04-10T20:37:39.251Z,29.00
2018-04-10T20:40:06.661Z,28.60
2018-04-10T20:42:34.131Z,27.33
2018-04-10T20:45:01.525Z,27.50
2018-04-10T20:47:28.912Z,26.93
2018-04-10T20:49:56.330Z,34.87
2018-04-10T20:52:23.825Z,28.27
2018-04-10T20:54:51.287Z,27.60
2018-04-10T20:57:18.740Z,35.40
2018-04-10T20:59:46.303Z,28.17
2018-04-10T21:02:13.718Z,37.27
2018-04-10T21:04:41.122Z,30.50
2018-04-10T21:07:08.565Z,32.93
2018-04-10T21:09:36.006Z,30.60
2018-04-10T21:12:03.402Z,24.77
2018-04-10T21:14:30.900Z,33.17
2018-04-10T21:16:58.360Z,31.70
2018-04-10T21:19:25.748Z,31.80
2018-04-10T21:21:53.169Z,32.23
2018-04-10T21:24:20.600Z,36.90
2018-04-10T21:26:48.080Z,25.60
2018-04-10T21:29:15.474Z,31.13
2018-04-10T21:31:42.889Z,31.60
2018-04-10T21:34:10.369Z,30.40
2018-04-10T21:36:37.769Z,35.83
2018-04-10T21:39:05.169Z,33.63
2018-04-10T21:41:32.560Z,33.83
2018-04-10T21:43:59.957Z,40.20
2018-04-10T21:46:27.413Z,37.00
2018-04-10T21:48:54.864Z,31.73
2018-04-10T21:51:22.325Z,25.33
2018-04-10T21:53:49.721Z,34.30
2018-04-10T21:56:17.117Z,41.07
2018-04-10T21:58:44.514Z,41.77
2018-04-10T22:01:11.909Z,30.33
2018-04-10T22:03:39.313Z,38.20
2018-04-10T22:06:06.705Z,41.47
2018-04-10T22:08:34.100Z,30.60
2018-04-10T22:11:01.589Z,30.63
2018-04-10T22:13:29.002Z,34.90
2018-04-10T22:15:56.380Z,28.83
2018-04-10T22:18:23.862Z,35.27
2018-04-10T22:20:51.256Z,33.60
2018-04-10T22:23:18.672Z,34.90
2018-04-10T22:25:46.065Z,31.30
2018-04-10T22:28:13.452Z,37.50
2018-04-10T22:30:40.857Z,34.00
2018-04-10T22:33:08.269Z,26.80
2018-04-10T22:35:35.669Z,34.00
2018-04-10T22:38:03.072Z,37.90
2018-04-10T22:40:30.481Z,34.97
2018-04-10T22:42:57.973Z,37.80
2018-04-10T22:45:25.376Z,30.60
2018-04-10T22:47:52.771Z,34.73
2018-04-10T22:50:20.169Z,32.50
2018-04-10T22:52:47.610Z,33.03
2018-04-10T22:55:15.019Z,31.07
2018-04-10T22:57:42.402Z,33.40
2018-04-10T23:00:09.801Z,29.80
2018-04-10T23:02:37.203Z,37.30
2018-04-10T23:05:04.597Z,33.80
2018-04-10T23:07:32.001Z,34.27
2018-04-10T23:09:59.409Z,30.47
2018-04-10T23:12:26.816Z,33.07
2018-04-10T23:14:54.214Z,26.90
2018-04-10T23:17:21.610Z,33.13
2018-04-10T23:19:49.053Z,26.00
2018-04-10T23:22:16.481Z,40.83
2018-04-10T23:24:43.856Z,33.20
2018-04-10T23:27:11.242Z,34.77
2018-04-10T23:29:38.702Z,39.50
2018-04-10T23:32:06.162Z,31.98
2018-04-10T23:34:33.580Z,40.43
2018-04-10T23:37:00.965Z,31.47
2018-04-10T23:39:28.437Z,39.80
2018-04-10T23:41:55.833Z,32.63
2018-04-10T23:44:23.233Z,32.27
2018-04-10T23:46:50.621Z,28.27
2018-04-10T23:49:18.022Z,32.23
2018-04-10T23:51:45.412Z,31.63
2018-04-10T23:54:12.824Z,25.63
2018-04-10T23:56:40.209Z,35.73
2018-04-10T23:59:07.618Z,33.00
